BrazilFixed distance
Ultramaratona dos Perdidos 45 Km
14 Jul2018
Distance
45km
Finishers
146113 men33 women
Winning time
5:01:19h
Median pace
4.93km/h
Pace distribution
146 finishers · 3.45–8.96 km/h · mean 5.23
Every finisher ran the same 45 km course, so these paces are directly comparable.
Histogram of finisher pace. 146 finishers ranged from 3.45 to 8.96 kilometres per hour, with a mean of 5.23 and a median of 4.93. The busiest band is 4.5 to 5.0 kilometres per hour, with 42 finishers.
Results
Ranks 101–146 of 146
| Rank | Runner | Time | Pace | Cat. | Placing |
|---|---|---|---|---|---|
| 101 | D-Run | 9:41:34h | 4.64 | M35 | 84th M · 20th M35 |
| 102 | 9:43:05h | 4.63 | W40 | 18th F · 7th W40 | |
| 103 | TRB | 9:43:55h | 4.62 | M45 | 85th M · 10th M45 |
| 104 | Corrida & Prosa | 9:44:17h | 4.62 | M23 | 86th M · 34th M23 |
| 105 | Trail Runners Brasil | 9:45:35h | 4.61 | M23 | 87th M · 35th M23 |
| 106 | BTR Trail Runnig | 9:47:58h | 4.59 | W35 | 19th F · 7th W35 |
| 107 | BTR Trail Running | 9:47:58h | 4.59 | M35 | 88th M · 21st M35 |
| 108 | Movemente Run | 9:50:50h | 4.57 | M45 | 89th M · 11th M45 |
| 109 | Souultra | 9:51:36h | 4.56 | WU23 | 20th F · 1st WU23 |
| 110 | 9:55:18h | 4.54 | M40 | 90th M · 17th M40 | |
| 111 | 9:55:37h | 4.53 | M35 | 91st M · 22nd M35 | |
| 112 | 9:55:46h | 4.53 | M40 | 92nd M · 18th M40 | |
| 113 | Clube de Corrida 12 KM | 9:56:14h | 4.53 | W40 | 21st F · 8th W40 |
| 114 | Corcha/Energia Vital | 9:57:03h | 4.52 | W23 | 22nd F · 5th W23 |
| 115 | Rafael Moreno Triatlo | 10:02:15h | 4.48 | W40 | 23rd F · 9th W40 |
| 116 | Camelbak Outdoor Sports | 10:03:07h | 4.48 | M50 | 93rd M · 6th M50 |
| 117 | SÓ Canelas | 10:03:11h | 4.48 | M35 | 94th M · 23rd M35 |
| 118 | Graciosa Runners | 10:05:34h | 4.46 | M50 | 95th M · 7th M50 |
| 119 | V8 | 10:10:34h | 4.42 | W23 | 24th F · 6th W23 |
| 120 | 10:14:26h | 4.39 | M23 | 96th M · 36th M23 | |
| 121 | BPM / Sportquest | 10:18:00h | 4.37 | M50 | 97th M · 8th M50 |
| 122 | Ultra Bonatto Team | 10:18:42h | 4.36 | M40 | 98th M · 19th M40 |
| 123 | 10:21:31h | 4.34 | M40 | 99th M · 20th M40 | |
| 124 | Inspire | 10:23:21h | 4.33 | M45 | 100th M · 12th M45 |
| 125 | Science Run Club | 10:24:10h | 4.33 | W35 | 25th F · 8th W35 |
| 126 | Veloz Assessoria Espor... | 10:25:58h | 4.31 | M23 | 101st M · 37th M23 |
| 127 | AM Esportes | 10:31:49h | 4.27 | M40 | 102nd M · 21st M40 |
| 128 | 10:32:00h | 4.27 | M35 | 103rd M · 24th M35 | |
| 129 | 10:32:30h | 4.27 | M35 | 104th M · 25th M35 | |
| 130 | X-Run / Roadrunner | 10:36:38h | 4.24 | M40 | 105th M · 22nd M40 |
| 131 | Brutos do Mato | 10:36:43h | 4.24 | M45 | 106th M · 13th M45 |
| 132 | Corra Orientado | 10:39:18h | 4.22 | W40 | 26th F · 10th W40 |
| 133 | IV Clima Aventura | 10:42:16h | 4.20 | M45 | 107th M · 14th M45 |
| 134 | Punk Runners | 10:42:26h | 4.20 | M35 | 108th M · 26th M35 |
| 135 | TRB | 10:42:39h | 4.20 | M40 | 109th M · 23rd M40 |
| 136 | Movemente | 10:42:50h | 4.20 | M45 | 110th M · 15th M45 |
| 137 | 10:43:05h | 4.20 | M23 | 111th M · 38th M23 | |
| 138 | Lobo | 10:43:30h | 4.20 | W35 | 27th F · 9th W35 |
| 139 | Lobo | 10:43:30h | 4.20 | M35 | 112th M · 27th M35 |
| 140 | Cris França | 10:46:34h | 4.18 | W45 | 28th F · 2nd W45 |
| 141 | Tribo do Esporte | 10:53:19h | 4.13 | M35 | 113th M · 28th M35 |
| 142 | Inspire Run | 11:31:57h | 3.90 | W23 | 29th F · 7th W23 |
| 143 | Inspire Assessoria Esp... | 11:51:53h | 3.79 | W45 | 30th F · 3rd W45 |
| 144 | Inspire/ Caleo Bicicletas | 11:51:58h | 3.79 | W35 | 31st F · 10th W35 |
| 145 | 11:52:43h | 3.79 | W55 | 32nd F · 1st W55 | |
| 146 | Família Meyer | 13:02:52h | 3.45 | W23 | 33rd F · 8th W23 |
- 101D-Run84th M · 20th M35Time9:41:34hPace4.64Cat.M35
- 10218th F · 7th W40Time9:43:05hPace4.63Cat.W40
- 103TRB85th M · 10th M45Time9:43:55hPace4.62Cat.M45
- 104Corrida & Prosa86th M · 34th M23Time9:44:17hPace4.62Cat.M23
- 105Trail Runners Brasil87th M · 35th M23Time9:45:35hPace4.61Cat.M23
- 106BTR Trail Runnig19th F · 7th W35Time9:47:58hPace4.59Cat.W35
- 107BTR Trail Running88th M · 21st M35Time9:47:58hPace4.59Cat.M35
- 108Movemente Run89th M · 11th M45Time9:50:50hPace4.57Cat.M45
- 109Souultra20th F · 1st WU23Time9:51:36hPace4.56Cat.WU23
- 11090th M · 17th M40Time9:55:18hPace4.54Cat.M40
- 11191st M · 22nd M35Time9:55:37hPace4.53Cat.M35
- 11292nd M · 18th M40Time9:55:46hPace4.53Cat.M40
- 113Clube de Corrida 12 KM21st F · 8th W40Time9:56:14hPace4.53Cat.W40
- 114Corcha/Energia Vital22nd F · 5th W23Time9:57:03hPace4.52Cat.W23
- 115Rafael Moreno Triatlo23rd F · 9th W40Time10:02:15hPace4.48Cat.W40
- 116Camelbak Outdoor Sports93rd M · 6th M50Time10:03:07hPace4.48Cat.M50
- 117SÓ Canelas94th M · 23rd M35Time10:03:11hPace4.48Cat.M35
- 118Graciosa Runners95th M · 7th M50Time10:05:34hPace4.46Cat.M50
- 119V824th F · 6th W23Time10:10:34hPace4.42Cat.W23
- 12096th M · 36th M23Time10:14:26hPace4.39Cat.M23
- 121BPM / Sportquest97th M · 8th M50Time10:18:00hPace4.37Cat.M50
- 122Ultra Bonatto Team98th M · 19th M40Time10:18:42hPace4.36Cat.M40
- 12399th M · 20th M40Time10:21:31hPace4.34Cat.M40
- 124Inspire100th M · 12th M45Time10:23:21hPace4.33Cat.M45
- 125Science Run Club25th F · 8th W35Time10:24:10hPace4.33Cat.W35
- 126Veloz Assessoria Espor...101st M · 37th M23Time10:25:58hPace4.31Cat.M23
- 127AM Esportes102nd M · 21st M40Time10:31:49hPace4.27Cat.M40
- 128103rd M · 24th M35Time10:32:00hPace4.27Cat.M35
- 129104th M · 25th M35Time10:32:30hPace4.27Cat.M35
- 130X-Run / Roadrunner105th M · 22nd M40Time10:36:38hPace4.24Cat.M40
- 131Brutos do Mato106th M · 13th M45Time10:36:43hPace4.24Cat.M45
- 132Corra Orientado26th F · 10th W40Time10:39:18hPace4.22Cat.W40
- 133IV Clima Aventura107th M · 14th M45Time10:42:16hPace4.20Cat.M45
- 134Punk Runners108th M · 26th M35Time10:42:26hPace4.20Cat.M35
- 135TRB109th M · 23rd M40Time10:42:39hPace4.20Cat.M40
- 136Movemente110th M · 15th M45Time10:42:50hPace4.20Cat.M45
- 137111th M · 38th M23Time10:43:05hPace4.20Cat.M23
- 138Lobo27th F · 9th W35Time10:43:30hPace4.20Cat.W35
- 139Lobo112th M · 27th M35Time10:43:30hPace4.20Cat.M35
- 140Cris França28th F · 2nd W45Time10:46:34hPace4.18Cat.W45
- 141Tribo do Esporte113th M · 28th M35Time10:53:19hPace4.13Cat.M35
- 142Inspire Run29th F · 7th W23Time11:31:57hPace3.90Cat.W23
- 143Inspire Assessoria Esp...30th F · 3rd W45Time11:51:53hPace3.79Cat.W45
- 144Inspire/ Caleo Bicicletas31st F · 10th W35Time11:51:58hPace3.79Cat.W35
- 14532nd F · 1st W55Time11:52:43hPace3.79Cat.W55
- 146Família Meyer33rd F · 8th W23Time13:02:52hPace3.45Cat.W23
Showing ranks 101–146 of 146